createdAt,value
2023-05-04T00:00:26.918Z,25.00
2023-05-04T00:01:26.904Z,25.00
2023-05-04T00:02:26.950Z,25.00
2023-05-04T00:03:27.057Z,0.00
2023-05-04T00:04:26.994Z,0.00
2023-05-04T00:05:26.984Z,0.00
2023-05-04T00:06:27.981Z,0.00
2023-05-04T00:07:27.034Z,0.00
2023-05-04T00:08:27.076Z,0.00
2023-05-04T00:09:27.126Z,0.00
2023-05-04T00:10:27.127Z,0.00
2023-05-04T00:11:27.166Z,0.00
2023-05-04T00:12:27.198Z,3.30
2023-05-04T00:13:27.260Z,23.22
2023-05-04T00:14:27.268Z,25.00
2023-05-04T00:15:27.301Z,25.00
2023-05-04T00:16:27.388Z,26.58
2023-05-04T00:17:27.429Z,26.57
2023-05-04T00:18:27.414Z,26.13
2023-05-04T00:19:27.461Z,24.91
2023-05-04T00:20:27.473Z,25.00
2023-05-04T00:21:27.505Z,26.49
2023-05-04T00:22:27.547Z,25.59
2023-05-04T00:23:27.575Z,25.00
2023-05-04T00:24:27.624Z,25.01
2023-05-04T00:25:27.648Z,26.03
2023-05-04T00:26:27.685Z,28.00
2023-05-04T00:27:27.722Z,25.14
2023-05-04T00:28:27.768Z,25.37
2023-05-04T00:29:27.909Z,25.78
2023-05-04T00:30:27.839Z,25.68
2023-05-04T00:31:27.896Z,29.00
2023-05-04T00:32:27.933Z,25.00
2023-05-04T00:33:27.957Z,27.06
2023-05-04T00:34:27.991Z,27.84
2023-05-04T00:35:28.047Z,25.50
2023-05-04T00:36:28.075Z,27.87
2023-05-04T00:37:28.114Z,26.05
2023-05-04T00:38:28.146Z,25.00
2023-05-04T00:39:28.191Z,29.38
2023-05-04T00:40:28.235Z,25.91
2023-05-04T00:41:28.279Z,26.09
2023-05-04T00:42:28.305Z,25.74
2023-05-04T00:43:28.340Z,26.11
2023-05-04T00:44:28.380Z,26.30
2023-05-04T00:45:28.441Z,28.07
2023-05-04T00:46:28.467Z,29.62
2023-05-04T00:47:28.558Z,25.84
2023-05-04T00:48:28.509Z,27.51
2023-05-04T00:49:28.537Z,27.87
2023-05-04T00:50:28.581Z,27.53
2023-05-04T00:51:28.622Z,29.04
2023-05-04T00:52:28.694Z,27.90
2023-05-04T00:53:28.696Z,27.45
2023-05-04T00:54:28.728Z,27.09
2023-05-04T00:55:28.769Z,28.84
2023-05-04T00:56:28.818Z,27.06
2023-05-04T00:57:28.845Z,27.26
2023-05-04T00:58:28.881Z,25.00
2023-05-04T00:59:28.922Z,29.22
2023-05-04T01:00:28.973Z,26.57
2023-05-04T01:01:29.080Z,26.25
2023-05-04T01:02:29.098Z,27.70
2023-05-04T01:03:29.177Z,28.86
2023-05-04T01:04:29.120Z,26.72
2023-05-04T01:05:29.164Z,27.01
2023-05-04T01:06:29.205Z,28.01
2023-05-04T01:07:29.242Z,28.05
2023-05-04T01:08:29.279Z,28.66
2023-05-04T01:09:29.312Z,28.74
2023-05-04T01:10:29.354Z,26.10
2023-05-04T01:11:29.394Z,31.68
2023-05-04T01:12:29.450Z,27.18
2023-05-04T01:13:29.479Z,27.64
2023-05-04T01:14:29.504Z,28.16
2023-05-04T01:15:29.618Z,25.14
2023-05-04T01:16:29.621Z,27.25
2023-05-04T01:17:29.700Z,26.39
2023-05-04T01:18:29.660Z,29.05
2023-05-04T01:19:29.724Z,25.00
2023-05-04T01:20:29.788Z,26.71
2023-05-04T01:21:29.792Z,27.52
2023-05-04T01:22:29.829Z,27.73
2023-05-04T01:23:29.915Z,28.04
2023-05-04T01:24:29.901Z,27.12
2023-05-04T01:25:29.947Z,26.19
2023-05-04T01:26:29.982Z,25.19
2023-05-04T01:27:30.035Z,27.99
2023-05-04T01:28:30.072Z,29.98
2023-05-04T01:29:30.143Z,28.57
2023-05-04T01:30:30.151Z,27.43
2023-05-04T01:31:30.236Z,26.46
2023-05-04T01:32:30.262Z,25.00
2023-05-04T01:33:30.311Z,27.87
2023-05-04T01:34:30.326Z,26.53
2023-05-04T01:35:30.401Z,27.81
2023-05-04T01:36:30.436Z,27.61
2023-05-04T01:37:30.449Z,28.15
2023-05-04T01:38:30.488Z,27.61
2023-05-04T01:39:30.531Z,28.97
2023-05-04T01:40:30.588Z,25.80
2023-05-04T01:41:30.617Z,30.72
2023-05-04T01:42:30.655Z,26.92
2023-05-04T01:43:30.696Z,31.03
2023-05-04T01:44:30.725Z,25.91
2023-05-04T01:45:30.821Z,28.65
2023-05-04T01:46:30.842Z,30.33
2023-05-04T01:47:30.895Z,29.46
2023-05-04T01:48:30.911Z,25.00
2023-05-04T01:49:30.991Z,27.11
2023-05-04T01:50:30.981Z,27.15
2023-05-04T01:51:31.021Z,25.58
2023-05-04T01:52:31.053Z,28.87
2023-05-04T01:53:31.105Z,28.83
2023-05-04T01:54:31.168Z,30.15
2023-05-04T01:55:31.190Z,29.01
2023-05-04T01:56:31.229Z,27.47
2023-05-04T01:57:31.282Z,27.19
2023-05-04T01:58:31.315Z,28.86
2023-05-04T01:59:31.363Z,30.01
2023-05-04T02:00:31.407Z,29.51
2023-05-04T02:01:31.496Z,32.68
2023-05-04T02:02:31.578Z,29.90
2023-05-04T02:03:31.622Z,30.63
2023-05-04T02:04:31.563Z,26.94
2023-05-04T02:05:31.629Z,29.18
2023-05-04T02:06:31.667Z,28.12
2023-05-04T02:07:31.695Z,28.59
2023-05-04T02:08:31.742Z,30.65
2023-05-04T02:09:31.796Z,28.56
2023-05-04T02:10:31.837Z,25.98
2023-05-04T02:11:31.869Z,29.87
2023-05-04T02:12:31.946Z,28.20
2023-05-04T02:13:31.967Z,28.50
2023-05-04T02:14:32.011Z,28.29
2023-05-04T02:15:32.051Z,28.80
2023-05-04T02:16:32.111Z,26.76
2023-05-04T02:17:32.169Z,30.50
2023-05-04T02:18:32.191Z,27.53
2023-05-04T02:19:32.232Z,27.72
2023-05-04T02:20:32.278Z,26.77
2023-05-04T02:21:32.355Z,29.12
2023-05-04T02:22:32.378Z,30.48
2023-05-04T02:23:32.426Z,28.62
2023-05-04T02:24:32.463Z,27.60
2023-05-04T02:25:32.507Z,29.31
2023-05-04T02:26:32.575Z,25.00
2023-05-04T02:27:32.611Z,27.27
2023-05-04T02:28:32.644Z,27.70
2023-05-04T02:29:32.689Z,27.44
2023-05-04T02:30:32.740Z,30.28
2023-05-04T02:31:32.872Z,28.95
2023-05-04T02:32:32.878Z,29.01
2023-05-04T02:33:32.843Z,29.77
2023-05-04T02:34:32.868Z,28.46
2023-05-04T02:35:32.877Z,28.19
2023-05-04T02:36:32.902Z,27.88
2023-05-04T02:37:32.999Z,28.94
2023-05-04T02:38:32.931Z,28.47
2023-05-04T02:39:32.946Z,27.61
2023-05-04T02:40:32.960Z,32.42
2023-05-04T02:41:32.970Z,29.95
2023-05-04T02:42:33.045Z,30.02
2023-05-04T02:43:33.008Z,28.31
2023-05-04T02:44:33.026Z,27.29
2023-05-04T02:45:33.129Z,30.07
2023-05-04T02:46:33.063Z,30.33
2023-05-04T02:47:33.091Z,28.89
2023-05-04T02:48:33.098Z,27.47
2023-05-04T02:49:33.106Z,29.66
2023-05-04T02:50:33.117Z,27.73
2023-05-04T02:51:33.133Z,27.42
2023-05-04T02:52:33.149Z,27.60
2023-05-04T02:53:33.297Z,29.09
2023-05-04T02:54:33.199Z,30.28
2023-05-04T02:55:33.236Z,28.31
2023-05-04T02:56:33.284Z,27.92
2023-05-04T02:57:33.328Z,27.71
2023-05-04T02:58:33.380Z,29.03
2023-05-04T02:59:33.431Z,27.67
2023-05-04T03:00:33.477Z,29.42
2023-05-04T03:01:35.018Z,29.51
2023-05-04T03:02:33.657Z,30.98
2023-05-04T03:03:33.665Z,28.28
2023-05-04T03:04:33.779Z,28.61
2023-05-04T03:05:33.765Z,31.16
2023-05-04T03:06:33.805Z,27.04
2023-05-04T03:07:33.858Z,27.22
2023-05-04T03:08:33.904Z,28.96
2023-05-04T03:09:33.981Z,29.32
2023-05-04T03:10:34.005Z,26.78
2023-05-04T03:11:34.052Z,27.25
2023-05-04T03:12:34.123Z,28.66
2023-05-04T03:13:34.149Z,29.02
2023-05-04T03:14:34.200Z,27.41
2023-05-04T03:15:34.270Z,28.96
2023-05-04T03:16:34.366Z,28.07
2023-05-04T03:17:34.424Z,26.27
2023-05-04T03:18:58.131Z,29.05
2023-05-04T03:19:34.398Z,29.25
2023-05-04T03:20:34.385Z,30.23
2023-05-04T03:21:34.374Z,30.19
2023-05-04T03:22:34.382Z,31.06
2023-05-04T03:23:34.366Z,31.67
2023-05-04T03:24:34.357Z,30.14
2023-05-04T03:25:34.409Z,27.98
2023-05-04T03:26:34.345Z,30.23
2023-05-04T03:27:34.339Z,26.41
2023-05-04T03:28:34.323Z,28.19
2023-05-04T03:29:34.318Z,26.02
2023-05-04T03:30:34.306Z,27.56
2023-05-04T03:31:34.318Z,27.00
2023-05-04T03:32:34.342Z,27.75
2023-05-04T03:33:34.281Z,27.50
2023-05-04T03:34:34.269Z,27.60
2023-05-04T03:35:34.273Z,28.02
2023-05-04T03:36:34.264Z,29.06
2023-05-04T03:37:34.256Z,28.49
2023-05-04T03:38:34.249Z,27.71
2023-05-04T03:39:34.239Z,29.82
2023-05-04T03:40:34.234Z,28.60
2023-05-04T03:41:34.269Z,29.39
2023-05-04T03:42:34.227Z,29.81
2023-05-04T03:43:34.224Z,25.24
2023-05-04T03:44:34.213Z,25.41
2023-05-04T03:45:34.200Z,30.15
2023-05-04T03:46:34.249Z,27.02
2023-05-04T03:47:34.192Z,27.35
2023-05-04T03:48:34.208Z,28.54
2023-05-04T03:49:34.274Z,28.66
2023-05-04T03:50:34.315Z,27.73
2023-05-04T03:51:34.384Z,29.70
2023-05-04T03:52:34.431Z,26.15
2023-05-04T03:53:34.519Z,26.79
2023-05-04T03:54:34.507Z,30.38
2023-05-04T03:55:34.557Z,28.64
2023-05-04T03:56:34.611Z,27.07
2023-05-04T03:57:34.694Z,26.96
2023-05-04T03:58:34.718Z,25.12
2023-05-04T03:59:34.803Z,26.07
2023-05-04T04:00:34.814Z,29.18
2023-05-04T04:01:34.865Z,29.28
2023-05-04T04:02:35.008Z,29.59
2023-05-04T04:03:34.992Z,27.10
2023-05-04T04:04:35.050Z,27.96
2023-05-04T04:05:35.072Z,27.24
2023-05-04T04:06:35.133Z,29.78
2023-05-04T04:07:35.168Z,29.67
2023-05-04T04:08:35.226Z,27.05
2023-05-04T04:09:35.285Z,26.51
2023-05-04T04:10:35.330Z,26.39
2023-05-04T04:11:35.383Z,28.74
2023-05-04T04:12:35.507Z,28.54
2023-05-04T04:13:35.506Z,29.83
2023-05-04T04:14:35.539Z,28.47
2023-05-04T04:15:35.591Z,30.98
2023-05-04T04:16:35.784Z,31.19
2023-05-04T04:17:35.733Z,30.17
2023-05-04T04:18:35.751Z,29.81
2023-05-04T04:19:35.838Z,27.65
2023-05-04T04:20:35.862Z,27.60
2023-05-04T04:21:35.929Z,28.05
2023-05-04T04:22:35.973Z,30.23
2023-05-04T04:23:36.026Z,27.76
2023-05-04T04:24:36.094Z,28.35
2023-05-04T04:25:36.136Z,26.75
2023-05-04T04:26:36.196Z,28.72
2023-05-04T04:27:36.255Z,28.14
2023-05-04T04:28:36.291Z,29.02
2023-05-04T04:29:36.398Z,29.63
2023-05-04T04:30:36.418Z,28.52
2023-05-04T04:31:36.501Z,26.42
2023-05-04T04:32:36.547Z,27.39
2023-05-04T04:33:36.582Z,31.30
2023-05-04T04:34:36.655Z,27.07
2023-05-04T04:35:36.689Z,26.86
2023-05-04T04:36:36.765Z,31.02
2023-05-04T04:37:36.818Z,28.11
2023-05-04T04:38:36.861Z,26.77
2023-05-04T04:39:36.960Z,26.75
2023-05-04T04:40:36.973Z,25.12
2023-05-04T04:41:37.026Z,26.79
2023-05-04T04:42:37.088Z,25.55
2023-05-04T04:43:37.149Z,30.22
2023-05-04T04:44:37.203Z,27.24
2023-05-04T04:45:37.318Z,29.89
2023-05-04T04:46:37.358Z,29.88
2023-05-04T04:47:37.410Z,28.27
2023-05-04T04:48:37.452Z,30.89
2023-05-04T04:49:37.518Z,29.57
2023-05-04T04:50:37.571Z,30.75
2023-05-04T04:51:37.654Z,25.89
2023-05-04T04:52:37.689Z,26.33
2023-05-04T04:53:37.744Z,26.85
2023-05-04T04:54:37.793Z,29.10
2023-05-04T04:55:37.849Z,26.77
2023-05-04T04:56:37.884Z,27.72
2023-05-04T04:57:37.947Z,27.73
2023-05-04T04:58:37.986Z,28.65
2023-05-04T04:59:38.075Z,28.09
2023-05-04T05:00:38.113Z,28.81
2023-05-04T05:01:38.219Z,26.91
2023-05-04T05:02:38.401Z,26.19
2023-05-04T05:03:38.280Z,25.41
2023-05-04T05:04:38.395Z,26.97
2023-05-04T05:05:38.390Z,29.48
2023-05-04T05:06:38.444Z,27.93
2023-05-04T05:07:38.509Z,31.25
2023-05-04T05:08:38.564Z,26.60
2023-05-04T05:09:38.616Z,30.61
2023-05-04T05:10:38.686Z,28.52
2023-05-04T05:11:38.753Z,26.48
2023-05-04T05:12:38.848Z,26.85
2023-05-04T05:13:38.858Z,25.89
2023-05-04T05:14:38.915Z,26.84
2023-05-04T05:15:38.972Z,25.00
2023-05-04T05:16:39.068Z,27.30
2023-05-04T05:17:39.132Z,26.05
2023-05-04T05:18:39.108Z,27.73
2023-05-04T05:19:40.988Z,25.04
2023-05-04T05:20:39.144Z,25.15
2023-05-04T05:21:39.130Z,25.40
2023-05-04T05:22:39.138Z,23.90
2023-05-04T05:23:39.124Z,23.59
2023-05-04T05:24:39.142Z,23.19
2023-05-04T05:25:39.336Z,26.51
2023-05-04T05:26:39.087Z,26.60
2023-05-04T05:27:39.675Z,29.79
2023-05-04T05:28:39.100Z,29.52
2023-05-04T05:29:39.055Z,28.07
2023-05-04T05:30:39.099Z,28.88
2023-05-04T05:31:39.041Z,26.53
2023-05-04T05:32:39.212Z,27.89
2023-05-04T05:33:39.051Z,26.79
2023-05-04T05:34:39.017Z,26.74
2023-05-04T05:35:38.995Z,30.41
2023-05-04T05:36:39.013Z,31.43
2023-05-04T05:37:39.135Z,58.59
2023-05-04T05:38:38.984Z,55.05
2023-05-04T05:39:38.959Z,49.28
2023-05-04T05:40:38.955Z,51.07
2023-05-04T05:41:38.945Z,53.22
2023-05-04T05:42:38.940Z,47.92
2023-05-04T05:43:39.187Z,43.56
2023-05-04T05:44:38.979Z,37.25
2023-05-04T05:45:39.004Z,35.10
2023-05-04T05:46:39.172Z,31.63
2023-05-04T05:47:39.174Z,30.61
2023-05-04T05:48:39.632Z,27.02
2023-05-04T05:49:42.180Z,25.30
2023-05-04T05:50:39.208Z,25.52
2023-05-04T05:51:39.244Z,23.93
2023-05-04T05:52:39.639Z,22.38
2023-05-04T05:53:39.636Z,19.43
2023-05-04T05:54:39.648Z,16.62
2023-05-04T05:55:39.639Z,27.00
2023-05-04T05:56:42.757Z,25.85
2023-05-04T05:57:42.664Z,25.89
2023-05-04T05:58:39.451Z,26.10
2023-05-04T05:59:39.455Z,26.17
2023-05-04T06:00:39.617Z,25.88
2023-05-04T06:01:39.453Z,21.60
2023-05-04T06:02:47.134Z,18.50
2023-05-04T06:03:42.810Z,26.00
2023-05-04T06:06:46.823Z,26.26
2023-05-04T06:07:42.611Z,26.23
2023-05-04T06:08:46.758Z,26.20
2023-05-04T06:09:39.351Z,26.28
2023-05-04T06:10:39.337Z,25.28
2023-05-04T06:11:39.339Z,22.64
2023-05-04T06:12:39.669Z,13.49
2023-05-04T06:13:39.317Z,8.26
2023-05-04T06:14:39.310Z,24.54
2023-05-04T06:15:39.317Z,26.37
2023-05-04T06:16:39.379Z,25.35
2023-05-04T06:17:39.686Z,26.10
2023-05-04T06:18:39.299Z,28.15
2023-05-04T06:19:42.512Z,26.97
2023-05-04T06:20:39.262Z,27.10
2023-05-04T06:21:39.270Z,27.00
2023-05-04T06:22:39.666Z,24.82
2023-05-04T06:23:39.233Z,20.14
2023-05-04T06:24:39.222Z,18.73
2023-05-04T06:25:39.209Z,25.00
2023-05-04T06:26:39.201Z,25.38
2023-05-04T06:27:39.198Z,25.42
2023-05-04T06:28:39.195Z,26.67
2023-05-04T06:29:39.228Z,26.07
2023-05-04T06:30:39.174Z,27.76
2023-05-04T06:31:39.265Z,26.70
2023-05-04T06:32:39.222Z,25.23
2023-05-04T06:33:39.163Z,29.59
2023-05-04T06:34:39.138Z,26.35
2023-05-04T06:35:39.142Z,27.00
2023-05-04T06:36:39.141Z,29.79
2023-05-04T06:37:40.138Z,25.74
2023-05-04T06:38:42.404Z,27.53
2023-05-04T06:39:39.124Z,27.63
2023-05-04T06:40:39.132Z,25.16
2023-05-04T06:41:39.167Z,21.78
2023-05-04T06:42:39.111Z,18.69
2023-05-04T06:43:39.129Z,11.95
2023-05-04T06:44:39.084Z,25.84
2023-05-04T06:45:39.299Z,27.15
2023-05-04T06:46:39.062Z,25.08
2023-05-04T06:47:39.091Z,26.79
2023-05-04T06:48:39.107Z,25.00
2023-05-04T06:49:39.050Z,26.80
2023-05-04T06:50:39.197Z,25.22
2023-05-04T06:51:39.057Z,26.04
2023-05-04T06:52:39.068Z,26.62
2023-05-04T06:53:39.053Z,26.93
2023-05-04T06:54:40.269Z,25.77
2023-05-04T06:55:39.148Z,25.47
2023-05-04T06:56:39.403Z,25.96
2023-05-04T06:57:39.038Z,26.89
2023-05-04T06:58:40.092Z,28.85
2023-05-04T06:59:39.172Z,25.81
2023-05-04T07:00:39.273Z,27.24
2023-05-04T07:01:39.736Z,27.57
2023-05-04T07:02:39.359Z,26.29
2023-05-04T07:03:39.468Z,27.24
2023-05-04T07:04:39.451Z,26.11
2023-05-04T07:05:39.522Z,27.10
2023-05-04T07:06:39.553Z,26.52
2023-05-04T07:07:39.600Z,27.23
2023-05-04T07:08:40.659Z,27.30
2023-05-04T07:09:39.713Z,27.78
2023-05-04T07:10:39.770Z,24.61
2023-05-04T07:11:39.780Z,26.15
2023-05-04T07:12:39.876Z,29.04
2023-05-04T07:13:39.838Z,26.92
2023-05-04T07:14:39.881Z,25.00
2023-05-04T07:15:39.890Z,24.01
2023-05-04T07:16:40.079Z,25.49
2023-05-04T07:17:40.220Z,40.26
2023-05-04T07:18:39.980Z,26.46
2023-05-04T07:19:40.007Z,30.78
2023-05-04T07:20:40.036Z,26.28
2023-05-04T07:21:40.072Z,29.85
2023-05-04T07:22:40.080Z,25.00
2023-05-04T07:23:40.096Z,29.57
2023-05-04T07:24:40.117Z,27.19
2023-05-04T07:25:40.480Z,26.86
2023-05-04T07:26:40.180Z,27.65
2023-05-04T07:27:40.220Z,25.35
2023-05-04T07:28:40.301Z,26.87
2023-05-04T07:29:40.251Z,27.05
2023-05-04T07:30:40.288Z,33.91
2023-05-04T07:31:40.325Z,39.47
2023-05-04T07:32:40.355Z,46.88
2023-05-04T07:33:40.748Z,43.36
2023-05-04T07:34:45.643Z,32.71
2023-05-04T07:35:56.057Z,27.29
2023-05-04T07:36:42.026Z,30.05
2023-05-04T07:37:40.649Z,22.38
2023-05-04T07:38:40.370Z,20.36
2023-05-04T07:39:40.339Z,7.44
2023-05-04T07:40:40.280Z,1.61
2023-05-04T07:41:40.686Z,2.78
2023-05-04T07:42:41.708Z,30.16
2023-05-04T07:43:40.293Z,33.13
2023-05-04T07:44:43.911Z,28.10
2023-05-04T07:45:40.295Z,26.02
2023-05-04T07:46:43.573Z,17.43
2023-05-04T07:47:40.716Z,14.38
2023-05-04T07:48:40.742Z,23.04
2023-05-04T07:49:40.255Z,19.03
2023-05-04T07:50:40.254Z,33.77
2023-05-04T07:51:40.239Z,46.63
2023-05-04T07:52:40.237Z,62.98
2023-05-04T07:53:40.665Z,79.77
2023-05-04T07:54:40.237Z,99.87
2023-05-04T07:55:40.349Z,113.97
2023-05-04T07:56:41.234Z,111.85
2023-05-04T07:57:40.804Z,118.40
2023-05-04T07:58:40.539Z,120.87
2023-05-04T07:59:40.234Z,121.08
2023-05-04T08:00:40.199Z,121.98
2023-05-04T08:01:41.946Z,115.37
2023-05-04T08:02:40.765Z,113.44
2023-05-04T08:03:40.193Z,116.30
2023-05-04T08:04:40.338Z,117.24
2023-05-04T08:05:40.425Z,121.27
2023-05-04T08:06:40.268Z,121.35
2023-05-04T08:07:40.191Z,126.56
2023-05-04T08:08:40.170Z,131.54
2023-05-04T08:09:40.218Z,134.97
2023-05-04T08:10:40.115Z,136.66
2023-05-04T08:11:40.156Z,137.74
2023-05-04T08:12:40.275Z,142.33
2023-05-04T08:13:41.688Z,141.33
2023-05-04T08:14:40.377Z,142.94
2023-05-04T08:15:40.344Z,150.70
2023-05-04T08:16:40.699Z,148.28
2023-05-04T08:17:40.401Z,144.35
2023-05-04T08:18:41.481Z,149.78
2023-05-04T08:19:40.505Z,149.26
2023-05-04T08:20:40.546Z,150.75
2023-05-04T08:21:40.854Z,148.29
2023-05-04T08:22:40.632Z,144.01
2023-05-04T08:23:40.623Z,134.28
2023-05-04T08:24:40.722Z,125.91
2023-05-04T08:25:40.739Z,125.10
2023-05-04T08:26:42.448Z,113.31
2023-05-04T08:27:40.838Z,113.34
2023-05-04T08:28:41.441Z,115.09
2023-05-04T08:29:48.255Z,116.48
2023-05-04T08:30:41.698Z,113.89
2023-05-04T08:31:41.033Z,114.03
2023-05-04T08:32:40.784Z,115.51
2023-05-04T08:33:40.917Z,116.28
2023-05-04T08:34:41.714Z,108.54
2023-05-04T08:35:41.055Z,102.87
2023-05-04T08:36:41.608Z,102.91
2023-05-04T08:37:40.719Z,101.30
2023-05-04T08:38:40.621Z,110.63
2023-05-04T08:39:42.229Z,101.65
2023-05-04T08:40:41.637Z,97.36
2023-05-04T08:41:41.588Z,97.61
2023-05-04T08:42:40.582Z,98.46
2023-05-04T08:43:47.969Z,98.52
2023-05-04T08:44:42.096Z,96.38
2023-05-04T08:45:40.628Z,97.50
2023-05-04T08:46:41.232Z,83.94
2023-05-04T08:47:56.185Z,79.31
2023-05-04T08:48:40.523Z,84.42
2023-05-04T08:49:40.684Z,70.54
2023-05-04T08:50:40.490Z,61.56
2023-05-04T08:51:40.440Z,61.02
2023-05-04T08:52:40.759Z,66.28
2023-05-04T08:53:41.883Z,66.47
2023-05-04T08:54:40.461Z,62.87
2023-05-04T08:55:40.472Z,55.35
2023-05-04T08:56:40.536Z,49.93
2023-05-04T08:57:40.689Z,54.10
2023-05-04T08:58:40.643Z,47.43
2023-05-04T08:59:40.694Z,53.79
2023-05-04T09:00:40.796Z,55.97
2023-05-04T09:01:40.867Z,51.06
2023-05-04T09:02:41.312Z,32.76
2023-05-04T09:03:41.026Z,32.85
2023-05-04T09:04:40.896Z,38.04
2023-05-04T09:05:40.936Z,35.17
2023-05-04T09:06:40.958Z,27.11
2023-05-04T09:07:40.982Z,27.49
2023-05-04T09:08:41.011Z,29.87
2023-05-04T09:09:41.045Z,25.00
2023-05-04T09:10:41.210Z,25.01
2023-05-04T09:11:41.094Z,25.00
2023-05-04T09:12:41.154Z,37.17
2023-05-04T09:13:41.137Z,45.71
2023-05-04T09:15:12.954Z,34.28
2023-05-04T09:15:41.142Z,34.32
2023-05-04T09:16:41.149Z,32.10
2023-05-04T09:17:50.848Z,31.71
2023-05-04T09:18:41.233Z,34.31
2023-05-04T09:19:41.096Z,34.29
2023-05-04T09:20:41.078Z,36.10
2023-05-04T09:21:41.069Z,39.86
2023-05-04T09:22:41.439Z,42.22
2023-05-04T09:23:41.322Z,44.84
2023-05-04T09:24:41.152Z,46.76
2023-05-04T09:25:41.007Z,44.27
2023-05-04T09:26:42.009Z,0.00
2023-05-04T09:27:41.142Z,0.00
2023-05-04T09:28:44.440Z,12.07
2023-05-04T09:29:40.972Z,12.41
2023-05-04T09:30:40.965Z,19.94
2023-05-04T09:31:41.023Z,24.21
2023-05-04T09:32:40.974Z,48.43
2023-05-04T09:33:44.438Z,110.47
2023-05-04T09:34:40.908Z,15.65
2023-05-04T09:35:40.902Z,23.93
2023-05-04T09:36:40.889Z,61.09
2023-05-04T09:37:48.276Z,121.66
2023-05-04T09:38:41.249Z,18.03
2023-05-04T09:39:48.636Z,20.36
2023-05-04T09:40:40.877Z,20.46
2023-05-04T09:41:41.800Z,53.36
2023-05-04T09:42:40.798Z,111.59
2023-05-04T09:43:40.774Z,196.22
2023-05-04T09:44:41.209Z,313.62
2023-05-04T09:45:40.721Z,250.00
2023-05-04T09:46:40.902Z,248.33
2023-05-04T09:47:40.779Z,242.13
2023-05-04T09:48:40.678Z,239.96
2023-05-04T09:49:40.736Z,235.92
2023-05-04T09:50:40.647Z,231.08
2023-05-04T09:51:40.699Z,232.26
2023-05-04T09:52:40.697Z,236.65
2023-05-04T09:53:40.710Z,223.32
2023-05-04T09:54:40.762Z,216.55
2023-05-04T09:55:40.774Z,208.78
2023-05-04T09:56:40.804Z,213.98
2023-05-04T09:57:40.858Z,217.83
2023-05-04T09:58:41.229Z,216.26
2023-05-04T09:59:40.884Z,209.09
2023-05-04T10:00:40.917Z,213.62
2023-05-04T10:01:42.244Z,204.12
2023-05-04T10:02:41.010Z,204.24
2023-05-04T10:03:41.264Z,204.48
2023-05-04T10:05:12.798Z,204.96
2023-05-04T10:05:40.936Z,204.51
2023-05-04T10:06:40.832Z,206.51
2023-05-04T10:07:41.804Z,212.29
2023-05-04T10:08:41.261Z,220.37
2023-05-04T10:09:40.762Z,225.39
2023-05-04T10:10:41.728Z,222.04
2023-05-04T10:11:40.736Z,220.10
2023-05-04T10:12:40.704Z,215.24
2023-05-04T10:13:40.703Z,215.72
2023-05-04T10:14:40.634Z,220.51
2023-05-04T10:15:40.624Z,220.48
2023-05-04T10:16:40.582Z,208.36
2023-05-04T10:17:40.568Z,205.44
2023-05-04T10:18:40.716Z,205.70
2023-05-04T10:19:40.502Z,189.69
2023-05-04T10:20:40.500Z,192.49
2023-05-04T10:21:40.482Z,192.66
2023-05-04T10:22:41.231Z,132.36
2023-05-04T10:23:40.717Z,116.21
2023-05-04T10:24:40.569Z,75.69
2023-05-04T10:25:40.613Z,49.80
2023-05-04T10:26:40.725Z,25.97
2023-05-04T10:27:40.764Z,27.91
2023-05-04T10:28:40.729Z,61.51
2023-05-04T10:29:40.731Z,84.11
2023-05-04T10:30:40.763Z,106.11
2023-05-04T10:31:40.845Z,105.77
2023-05-04T10:32:40.888Z,93.69
2023-05-04T10:33:40.913Z,87.33
2023-05-04T10:34:41.216Z,83.94
2023-05-04T10:35:40.933Z,69.21
2023-05-04T10:36:41.024Z,61.16
2023-05-04T10:37:41.222Z,46.32
2023-05-04T10:38:41.222Z,43.47
2023-05-04T10:39:41.306Z,50.20
2023-05-04T10:40:41.089Z,41.01
2023-05-04T10:41:41.130Z,47.24
2023-05-04T10:42:41.161Z,53.15
2023-05-04T10:43:41.202Z,47.90
2023-05-04T10:44:41.723Z,42.95
2023-05-04T10:45:41.294Z,30.96
2023-05-04T10:46:41.288Z,25.71
2023-05-04T10:47:42.301Z,25.00
2023-05-04T10:48:41.323Z,25.00
2023-05-04T10:49:41.730Z,33.21
2023-05-04T10:50:41.431Z,28.70
2023-05-04T10:51:49.119Z,33.58
2023-05-04T10:52:41.454Z,30.40
2023-05-04T10:53:41.413Z,34.24
2023-05-04T10:54:41.755Z,33.64
2023-05-04T10:55:41.370Z,31.33
2023-05-04T10:56:41.344Z,37.10
2023-05-04T10:57:41.329Z,51.52
2023-05-04T10:58:41.312Z,49.52
2023-05-04T10:59:41.753Z,53.28
2023-05-04T11:00:41.265Z,39.02
2023-05-04T11:01:41.746Z,35.96
2023-05-04T11:02:41.811Z,56.26
2023-05-04T11:03:41.339Z,55.43
2023-05-04T11:04:41.195Z,47.79
2023-05-04T11:05:41.183Z,51.81
2023-05-04T11:06:42.175Z,55.19
2023-05-04T11:07:41.268Z,51.79
2023-05-04T11:08:41.249Z,40.12
2023-05-04T11:09:41.110Z,40.40
2023-05-04T11:10:41.096Z,36.81
2023-05-04T11:11:41.100Z,31.02
2023-05-04T11:12:40.164Z,44.47
2023-05-04T11:13:41.277Z,49.61
2023-05-04T11:14:41.012Z,50.77
2023-05-04T11:15:40.989Z,57.80
2023-05-04T11:16:41.018Z,55.00
2023-05-04T11:17:40.956Z,45.46
2023-05-04T11:18:41.280Z,39.73
2023-05-04T11:19:40.910Z,48.21
2023-05-04T11:20:40.907Z,42.15
2023-05-04T11:21:40.937Z,49.93
2023-05-04T11:22:40.886Z,54.07
2023-05-04T11:23:41.284Z,46.55
2023-05-04T11:24:40.839Z,51.69
2023-05-04T11:25:40.780Z,53.88
2023-05-04T11:26:40.764Z,55.92
2023-05-04T11:27:40.744Z,45.53
2023-05-04T11:28:40.737Z,43.52
2023-05-04T11:29:40.741Z,42.75
2023-05-04T11:30:40.686Z,47.92
2023-05-04T11:31:40.727Z,42.29
2023-05-04T11:32:40.699Z,43.56
2023-05-04T11:33:40.788Z,44.84
2023-05-04T11:34:40.619Z,35.05
2023-05-04T11:35:40.607Z,51.88
2023-05-04T11:36:40.598Z,56.69
2023-05-04T11:37:40.630Z,56.89
2023-05-04T11:38:40.558Z,68.26
2023-05-04T11:39:40.742Z,55.81
2023-05-04T11:40:40.554Z,42.08
2023-05-04T11:41:40.529Z,35.95
2023-05-04T11:42:40.537Z,45.31
2023-05-04T11:43:40.541Z,52.30
2023-05-04T11:44:41.553Z,49.13
2023-05-04T11:45:40.600Z,47.62
2023-05-04T11:46:40.675Z,61.75
2023-05-04T11:47:40.790Z,41.91
2023-05-04T11:48:40.820Z,41.77
2023-05-04T11:49:40.740Z,39.38
2023-05-04T11:50:40.785Z,35.63
2023-05-04T11:51:40.819Z,43.24
2023-05-04T11:52:40.944Z,52.60
2023-05-04T11:53:40.911Z,51.05
2023-05-04T11:54:40.946Z,40.79
2023-05-04T11:55:40.988Z,44.91
2023-05-04T11:56:41.062Z,55.99
2023-05-04T11:57:41.039Z,43.45
2023-05-04T11:58:41.093Z,41.48
2023-05-04T11:59:41.131Z,56.52
2023-05-04T12:00:41.172Z,65.12
2023-05-04T12:01:41.201Z,69.98
2023-05-04T12:02:41.397Z,66.73
2023-05-04T12:03:53.278Z,56.19
2023-05-04T12:04:41.294Z,56.21
2023-05-04T12:05:41.329Z,45.88
2023-05-04T12:06:41.278Z,38.41
2023-05-04T12:07:41.273Z,52.57
2023-05-04T12:08:41.269Z,53.58
2023-05-04T12:09:41.206Z,41.87
2023-05-04T12:10:41.269Z,40.27
2023-05-04T12:11:41.167Z,49.52
2023-05-04T12:12:41.219Z,42.38
2023-05-04T12:13:41.153Z,29.38
2023-05-04T12:14:41.260Z,51.41
2023-05-04T12:15:41.091Z,39.24
2023-05-04T12:16:41.102Z,39.82
2023-05-04T12:17:41.096Z,48.65
2023-05-04T12:18:41.036Z,52.56
2023-05-04T12:19:41.045Z,56.23
2023-05-04T12:20:41.256Z,58.49
2023-05-04T12:21:40.982Z,61.13
2023-05-04T12:22:40.978Z,71.41
2023-05-04T12:23:40.955Z,76.88
2023-05-04T12:24:40.942Z,78.87
2023-05-04T12:25:51.023Z,67.79
2023-05-04T12:26:40.920Z,68.12
2023-05-04T12:27:40.890Z,63.31
2023-05-04T12:28:40.907Z,60.79
2023-05-04T12:29:42.761Z,56.64
2023-05-04T12:30:41.261Z,60.17
2023-05-04T12:31:40.932Z,63.78
2023-05-04T12:32:40.820Z,57.64
2023-05-04T12:33:40.833Z,52.61
2023-05-04T12:34:40.784Z,51.30
2023-05-04T12:35:40.761Z,47.35
2023-05-04T12:36:40.749Z,49.31
2023-05-04T12:37:40.743Z,51.03
2023-05-04T12:38:40.715Z,45.24
2023-05-04T12:39:40.709Z,42.79
2023-05-04T12:40:40.693Z,26.89
2023-05-04T12:41:40.668Z,30.65
2023-05-04T12:42:40.676Z,32.55
2023-05-04T12:43:40.635Z,26.55
2023-05-04T12:44:40.790Z,36.07
2023-05-04T12:45:40.627Z,25.00
2023-05-04T12:46:40.581Z,39.54
2023-05-04T12:47:40.573Z,38.96
2023-05-04T12:48:40.560Z,34.75
2023-05-04T12:49:40.528Z,25.52
2023-05-04T12:50:40.507Z,25.16
2023-05-04T12:51:40.489Z,26.29
2023-05-04T12:52:40.514Z,36.66